Main page
METAR-TAF:

METAR-TAF

Airports :

Gwadar International Airport

Gwadar, Pakistan

latitude: 25-13-59N, longitude: 062-19-46E, elevation: 29 m

METAR: missing

Time: 00:34 (19:34 UTC)

Forecast

The report was made 4 hours and 4 minutes ago, at 15:30 UTC
Forecast valid from 21 at 18 UTC to 22 at 18 UTC
Wind 5 kt from the South with gusts up to 15 kt
Visibility: 5000 m
Scattered clouds at a height of 3000 ft
haze
Temporary
from 22 at 00 UTC to 22 at 04 UTC
Wind 5 kt from the South/Southwest
Visibility: 4000 m
Broken clouds at a height of 2000 ft
haze
From 22 at 0600 UTC
Wind 5 kt from the South with gusts up to 15 kt
Visibility: 6000 m
Scattered clouds at a height of 2000 ft

TAF: OPGD 211530Z 2118/2218 18005G15KT 5000 HZ SCT030 TEMPO 2200/2204 20005KT 4000 HZ BKN020 FM220600 18005G15KT 6000 SCT020

Weather observations and forecasts of more than 4000 airports (METAR and TAF reports).

The available stations are represented by yellow and red dots on the map.

Hover mouse over dot to see the name of the station.

Then click to see weather observations and forecasts.

To change the map : click on the green buttons with a black cross to zoom in, on the green button with a dash to zoom out, or on the green arrows for adjacent maps.


METAR-TAF: